sensor_id;sensor_type;location;lat;lon;timestamp;P1;durP1;ratioP1;P2;durP2;ratioP2
17763;SDS011;22245;52.832;13.816;2023-07-31T00:00:20;5.25;;;2.80;;
17763;SDS011;22245;52.832;13.816;2023-07-31T00:03:43;5.10;;;2.38;;
17763;SDS011;22245;52.832;13.816;2023-07-31T00:07:05;4.15;;;2.35;;
17763;SDS011;22245;52.832;13.816;2023-07-31T00:10:27;4.53;;;2.15;;
17763;SDS011;22245;52.832;13.816;2023-07-31T00:13:48;5.32;;;2.22;;
17763;SDS011;22245;52.832;13.816;2023-07-31T00:17:09;5.53;;;2.40;;
17763;SDS011;22245;52.832;13.816;2023-07-31T00:20:32;4.80;;;2.40;;
17763;SDS011;22245;52.832;13.816;2023-07-31T00:23:54;6.55;;;2.45;;
17763;SDS011;22245;52.832;13.816;2023-07-31T00:27:16;6.28;;;2.10;;
17763;SDS011;22245;52.832;13.816;2023-07-31T00:30:37;4.75;;;2.20;;
17763;SDS011;22245;52.832;13.816;2023-07-31T00:33:59;4.63;;;2.20;;
17763;SDS011;22245;52.832;13.816;2023-07-31T00:37:22;7.35;;;2.22;;
17763;SDS011;22245;52.832;13.816;2023-07-31T00:40:44;3.00;;;1.90;;
17763;SDS011;22245;52.832;13.816;2023-07-31T00:44:06;2.50;;;1.92;;
17763;SDS011;22245;52.832;13.816;2023-07-31T00:47:27;4.13;;;2.10;;
17763;SDS011;22245;52.832;13.816;2023-07-31T00:50:50;3.83;;;2.00;;
17763;SDS011;22245;52.832;13.816;2023-07-31T00:54:13;3.53;;;2.08;;
17763;SDS011;22245;52.832;13.816;2023-07-31T00:57:36;3.25;;;2.20;;
17763;SDS011;22245;52.832;13.816;2023-07-31T01:00:59;4.18;;;2.25;;
17763;SDS011;22245;52.832;13.816;2023-07-31T01:04:21;4.72;;;2.00;;
17763;SDS011;22245;52.832;13.816;2023-07-31T01:07:45;3.83;;;1.80;;
17763;SDS011;22245;52.832;13.816;2023-07-31T01:11:15;4.72;;;2.20;;
17763;SDS011;22245;52.832;13.816;2023-07-31T01:14:50;4.43;;;1.80;;
17763;SDS011;22245;52.832;13.816;2023-07-31T01:18:12;2.58;;;1.70;;
17763;SDS011;22245;52.832;13.816;2023-07-31T01:21:41;3.83;;;2.05;;
17763;SDS011;22245;52.832;13.816;2023-07-31T01:25:22;4.18;;;2.00;;
17763;SDS011;22245;52.832;13.816;2023-07-31T01:29:03;5.57;;;2.05;;
17763;SDS011;22245;52.832;13.816;2023-07-31T01:32:28;9.45;;;2.38;;
17763;SDS011;22245;52.832;13.816;2023-07-31T01:35:51;5.13;;;2.10;;
17763;SDS011;22245;52.832;13.816;2023-07-31T01:39:13;5.50;;;2.25;;
17763;SDS011;22245;52.832;13.816;2023-07-31T01:42:35;6.43;;;2.20;;
17763;SDS011;22245;52.832;13.816;2023-07-31T01:45:58;4.03;;;1.95;;
17763;SDS011;22245;52.832;13.816;2023-07-31T01:49:20;4.20;;;1.83;;
17763;SDS011;22245;52.832;13.816;2023-07-31T01:52:42;3.75;;;1.80;;
17763;SDS011;22245;52.832;13.816;2023-07-31T01:56:04;7.32;;;2.30;;
17763;SDS011;22245;52.832;13.816;2023-07-31T01:59:26;2.65;;;1.95;;
17763;SDS011;22245;52.832;13.816;2023-07-31T02:02:50;5.30;;;2.00;;
17763;SDS011;22245;52.832;13.816;2023-07-31T02:06:12;6.05;;;2.03;;
17763;SDS011;22245;52.832;13.816;2023-07-31T02:09:33;3.15;;;1.75;;
17763;SDS011;22245;52.832;13.816;2023-07-31T02:12:55;3.17;;;1.95;;
17763;SDS011;22245;52.832;13.816;2023-07-31T02:16:17;4.28;;;1.90;;
17763;SDS011;22245;52.832;13.816;2023-07-31T02:19:40;3.95;;;2.03;;
17763;SDS011;22245;52.832;13.816;2023-07-31T02:23:02;3.65;;;1.77;;
17763;SDS011;22245;52.832;13.816;2023-07-31T02:26:24;4.45;;;1.70;;
17763;SDS011;22245;52.832;13.816;2023-07-31T02:29:45;3.28;;;1.65;;
17763;SDS011;22245;52.832;13.816;2023-07-31T02:33:07;7.18;;;2.13;;
17763;SDS011;22245;52.832;13.816;2023-07-31T02:36:30;3.65;;;1.70;;
17763;SDS011;22245;52.832;13.816;2023-07-31T02:39:52;5.13;;;1.80;;
17763;SDS011;22245;52.832;13.816;2023-07-31T02:43:13;5.78;;;1.65;;
17763;SDS011;22245;52.832;13.816;2023-07-31T02:46:35;5.38;;;1.80;;
17763;SDS011;22245;52.832;13.816;2023-07-31T02:49:57;4.47;;;1.90;;
17763;SDS011;22245;52.832;13.816;2023-07-31T02:53:21;4.50;;;1.60;;
17763;SDS011;22245;52.832;13.816;2023-07-31T02:56:43;5.03;;;1.75;;
17763;SDS011;22245;52.832;13.816;2023-07-31T03:00:06;4.75;;;1.83;;
17763;SDS011;22245;52.832;13.816;2023-07-31T03:03:29;5.47;;;1.80;;
17763;SDS011;22245;52.832;13.816;2023-07-31T03:06:51;7.72;;;2.10;;
17763;SDS011;22245;52.832;13.816;2023-07-31T03:10:15;5.10;;;1.90;;
17763;SDS011;22245;52.832;13.816;2023-07-31T03:13:37;5.53;;;2.50;;
17763;SDS011;22245;52.832;13.816;2023-07-31T03:16:59;6.20;;;2.40;;
17763;SDS011;22245;52.832;13.816;2023-07-31T03:20:20;9.13;;;2.22;;
17763;SDS011;22245;52.832;13.816;2023-07-31T03:23:43;4.57;;;2.13;;
17763;SDS011;22245;52.832;13.816;2023-07-31T03:27:06;5.82;;;2.10;;
17763;SDS011;22245;52.832;13.816;2023-07-31T03:30:28;4.25;;;2.30;;
17763;SDS011;22245;52.832;13.816;2023-07-31T03:33:50;4.03;;;2.30;;
17763;SDS011;22245;52.832;13.816;2023-07-31T03:37:11;5.03;;;2.20;;
17763;SDS011;22245;52.832;13.816;2023-07-31T03:40:33;5.70;;;2.45;;
17763;SDS011;22245;52.832;13.816;2023-07-31T03:43:56;5.70;;;2.45;;
17763;SDS011;22245;52.832;13.816;2023-07-31T03:47:17;4.85;;;2.88;;
17763;SDS011;22245;52.832;13.816;2023-07-31T03:50:38;3.97;;;2.30;;
17763;SDS011;22245;52.832;13.816;2023-07-31T03:54:00;3.92;;;2.30;;
17763;SDS011;22245;52.832;13.816;2023-07-31T03:57:21;7.40;;;2.50;;
17763;SDS011;22245;52.832;13.816;2023-07-31T04:00:45;3.33;;;2.28;;
17763;SDS011;22245;52.832;13.816;2023-07-31T04:04:07;4.78;;;2.47;;
17763;SDS011;22245;52.832;13.816;2023-07-31T04:07:28;6.35;;;2.45;;
17763;SDS011;22245;52.832;13.816;2023-07-31T04:10:50;6.40;;;2.50;;
17763;SDS011;22245;52.832;13.816;2023-07-31T04:14:11;5.63;;;2.72;;
17763;SDS011;22245;52.832;13.816;2023-07-31T04:17:34;4.18;;;2.20;;
17763;SDS011;22245;52.832;13.816;2023-07-31T04:20:56;3.58;;;2.00;;
17763;SDS011;22245;52.832;13.816;2023-07-31T04:24:18;3.33;;;2.00;;
17763;SDS011;22245;52.832;13.816;2023-07-31T04:27:44;7.40;;;2.30;;
17763;SDS011;22245;52.832;13.816;2023-07-31T04:31:05;4.10;;;2.30;;
17763;SDS011;22245;52.832;13.816;2023-07-31T04:34:28;4.15;;;2.10;;
17763;SDS011;22245;52.832;13.816;2023-07-31T04:37:50;6.38;;;2.30;;
17763;SDS011;22245;52.832;13.816;2023-07-31T04:41:11;3.92;;;2.55;;
17763;SDS011;22245;52.832;13.816;2023-07-31T04:44:33;7.88;;;2.75;;
17763;SDS011;22245;52.832;13.816;2023-07-31T04:47:54;5.88;;;2.55;;
17763;SDS011;22245;52.832;13.816;2023-07-31T04:51:17;3.67;;;2.75;;
17763;SDS011;22245;52.832;13.816;2023-07-31T04:54:38;4.90;;;2.90;;
17763;SDS011;22245;52.832;13.816;2023-07-31T04:58:00;4.97;;;2.97;;
17763;SDS011;22245;52.832;13.816;2023-07-31T05:01:22;7.25;;;3.40;;
17763;SDS011;22245;52.832;13.816;2023-07-31T05:04:44;5.93;;;2.88;;
17763;SDS011;22245;52.832;13.816;2023-07-31T05:08:07;5.15;;;3.22;;
17763;SDS011;22245;52.832;13.816;2023-07-31T05:11:29;6.10;;;3.08;;
17763;SDS011;22245;52.832;13.816;2023-07-31T05:14:51;7.35;;;3.63;;
17763;SDS011;22245;52.832;13.816;2023-07-31T05:18:12;8.93;;;3.78;;
17763;SDS011;22245;52.832;13.816;2023-07-31T05:21:34;6.35;;;3.28;;
17763;SDS011;22245;52.832;13.816;2023-07-31T05:24:56;5.20;;;4.18;;
17763;SDS011;22245;52.832;13.816;2023-07-31T05:28:18;5.00;;;3.30;;
17763;SDS011;22245;52.832;13.816;2023-07-31T05:31:40;5.53;;;3.80;;
17763;SDS011;22245;52.832;13.816;2023-07-31T05:35:02;6.85;;;3.65;;
17763;SDS011;22245;52.832;13.816;2023-07-31T05:38:24;6.50;;;3.65;;
17763;SDS011;22245;52.832;13.816;2023-07-31T05:41:47;7.70;;;4.13;;
17763;SDS011;22245;52.832;13.816;2023-07-31T05:45:09;8.60;;;4.20;;
17763;SDS011;22245;52.832;13.816;2023-07-31T05:48:31;5.57;;;3.95;;
17763;SDS011;22245;52.832;13.816;2023-07-31T05:51:53;6.60;;;3.90;;
17763;SDS011;22245;52.832;13.816;2023-07-31T05:55:15;7.22;;;4.00;;
17763;SDS011;22245;52.832;13.816;2023-07-31T05:58:38;6.05;;;4.00;;
17763;SDS011;22245;52.832;13.816;2023-07-31T06:02:03;7.32;;;4.38;;
17763;SDS011;22245;52.832;13.816;2023-07-31T06:05:25;6.25;;;4.00;;
17763;SDS011;22245;52.832;13.816;2023-07-31T06:08:50;8.27;;;4.05;;
17763;SDS011;22245;52.832;13.816;2023-07-31T06:12:11;6.78;;;4.30;;
17763;SDS011;22245;52.832;13.816;2023-07-31T06:15:35;7.70;;;3.80;;
17763;SDS011;22245;52.832;13.816;2023-07-31T06:18:57;6.30;;;3.88;;
17763;SDS011;22245;52.832;13.816;2023-07-31T06:22:19;8.90;;;4.03;;
17763;SDS011;22245;52.832;13.816;2023-07-31T06:25:40;6.18;;;3.50;;
17763;SDS011;22245;52.832;13.816;2023-07-31T06:29:02;6.43;;;3.60;;
17763;SDS011;22245;52.832;13.816;2023-07-31T06:32:25;8.27;;;3.72;;
17763;SDS011;22245;52.832;13.816;2023-07-31T06:35:47;7.13;;;4.03;;
17763;SDS011;22245;52.832;13.816;2023-07-31T06:39:09;7.07;;;4.25;;
17763;SDS011;22245;52.832;13.816;2023-07-31T06:42:31;7.75;;;4.22;;
17763;SDS011;22245;52.832;13.816;2023-07-31T06:45:53;7.78;;;4.00;;
17763;SDS011;22245;52.832;13.816;2023-07-31T06:49:16;5.38;;;3.50;;
17763;SDS011;22245;52.832;13.816;2023-07-31T06:52:38;7.22;;;3.60;;
17763;SDS011;22245;52.832;13.816;2023-07-31T06:55:59;4.93;;;3.20;;
17763;SDS011;22245;52.832;13.816;2023-07-31T07:03:06;5.97;;;3.50;;
17763;SDS011;22245;52.832;13.816;2023-07-31T07:06:30;7.07;;;3.70;;
17763;SDS011;22245;52.832;13.816;2023-07-31T07:09:58;7.00;;;3.28;;
17763;SDS011;22245;52.832;13.816;2023-07-31T07:13:22;8.10;;;3.80;;
17763;SDS011;22245;52.832;13.816;2023-07-31T07:16:50;6.13;;;3.63;;
17763;SDS011;22245;52.832;13.816;2023-07-31T07:20:15;7.82;;;3.55;;
17763;SDS011;22245;52.832;13.816;2023-07-31T07:23:43;4.35;;;3.15;;
17763;SDS011;22245;52.832;13.816;2023-07-31T07:27:07;7.32;;;3.60;;
17763;SDS011;22245;52.832;13.816;2023-07-31T07:30:32;5.60;;;3.58;;
17763;SDS011;22245;52.832;13.816;2023-07-31T07:33:57;4.90;;;3.15;;
17763;SDS011;22245;52.832;13.816;2023-07-31T07:37:20;8.43;;;3.50;;
17763;SDS011;22245;52.832;13.816;2023-07-31T07:40:45;8.55;;;3.28;;
17763;SDS011;22245;52.832;13.816;2023-07-31T07:44:12;4.28;;;3.22;;
17763;SDS011;22245;52.832;13.816;2023-07-31T07:47:37;5.60;;;3.13;;
17763;SDS011;22245;52.832;13.816;2023-07-31T07:51:04;6.53;;;3.13;;
17763;SDS011;22245;52.832;13.816;2023-07-31T07:54:27;4.88;;;2.70;;
17763;SDS011;22245;52.832;13.816;2023-07-31T07:57:51;3.85;;;2.60;;
17763;SDS011;22245;52.832;13.816;2023-07-31T08:01:13;6.82;;;2.70;;
17763;SDS011;22245;52.832;13.816;2023-07-31T08:04:36;5.63;;;2.95;;
17763;SDS011;22245;52.832;13.816;2023-07-31T08:07:59;4.82;;;2.63;;
17763;SDS011;22245;52.832;13.816;2023-07-31T08:11:22;6.00;;;2.95;;
17763;SDS011;22245;52.832;13.816;2023-07-31T08:14:45;5.72;;;2.65;;
17763;SDS011;22245;52.832;13.816;2023-07-31T08:18:07;6.60;;;2.85;;
17763;SDS011;22245;52.832;13.816;2023-07-31T08:21:29;3.80;;;2.58;;
17763;SDS011;22245;52.832;13.816;2023-07-31T08:24:51;5.10;;;2.60;;
17763;SDS011;22245;52.832;13.816;2023-07-31T08:28:12;3.92;;;2.65;;
17763;SDS011;22245;52.832;13.816;2023-07-31T08:31:36;3.20;;;2.45;;
17763;SDS011;22245;52.832;13.816;2023-07-31T08:34:57;4.32;;;2.58;;
17763;SDS011;22245;52.832;13.816;2023-07-31T08:38:19;5.63;;;2.67;;
17763;SDS011;22245;52.832;13.816;2023-07-31T08:41:41;2.42;;;2.10;;
17763;SDS011;22245;52.832;13.816;2023-07-31T08:45:03;3.35;;;2.35;;
17763;SDS011;22245;52.832;13.816;2023-07-31T08:48:27;4.88;;;2.70;;
17763;SDS011;22245;52.832;13.816;2023-07-31T08:51:51;5.63;;;2.45;;
17763;SDS011;22245;52.832;13.816;2023-07-31T08:55:14;5.22;;;2.72;;
17763;SDS011;22245;52.832;13.816;2023-07-31T08:58:36;4.20;;;2.65;;
17763;SDS011;22245;52.832;13.816;2023-07-31T09:02:00;5.45;;;2.72;;
17763;SDS011;22245;52.832;13.816;2023-07-31T09:05:29;4.60;;;2.72;;
17763;SDS011;22245;52.832;13.816;2023-07-31T09:08:52;4.47;;;2.58;;
17763;SDS011;22245;52.832;13.816;2023-07-31T09:12:13;3.80;;;2.83;;
17763;SDS011;22245;52.832;13.816;2023-07-31T09:15:35;4.20;;;2.70;;
17763;SDS011;22245;52.832;13.816;2023-07-31T09:18:59;4.78;;;2.30;;
17763;SDS011;22245;52.832;13.816;2023-07-31T09:22:34;4.05;;;2.38;;
17763;SDS011;22245;52.832;13.816;2023-07-31T09:25:56;3.10;;;1.92;;
17763;SDS011;22245;52.832;13.816;2023-07-31T09:29:20;2.17;;;1.80;;
17763;SDS011;22245;52.832;13.816;2023-07-31T09:32:41;3.22;;;1.70;;
17763;SDS011;22245;52.832;13.816;2023-07-31T09:36:04;3.42;;;2.10;;
17763;SDS011;22245;52.832;13.816;2023-07-31T09:39:27;4.18;;;2.17;;
17763;SDS011;22245;52.832;13.816;2023-07-31T09:42:50;2.63;;;1.90;;
17763;SDS011;22245;52.832;13.816;2023-07-31T09:46:13;2.17;;;1.50;;
17763;SDS011;22245;52.832;13.816;2023-07-31T09:49:35;2.38;;;1.60;;
17763;SDS011;22245;52.832;13.816;2023-07-31T09:52:56;2.08;;;1.52;;
17763;SDS011;22245;52.832;13.816;2023-07-31T09:56:19;2.65;;;1.83;;
17763;SDS011;22245;52.832;13.816;2023-07-31T09:59:43;3.33;;;2.22;;
17763;SDS011;22245;52.832;13.816;2023-07-31T10:03:06;4.45;;;2.45;;
17763;SDS011;22245;52.832;13.816;2023-07-31T10:06:30;3.58;;;2.25;;
17763;SDS011;22245;52.832;13.816;2023-07-31T10:09:53;2.40;;;2.05;;
17763;SDS011;22245;52.832;13.816;2023-07-31T10:13:18;2.95;;;2.15;;
17763;SDS011;22245;52.832;13.816;2023-07-31T10:16:42;4.07;;;2.20;;
17763;SDS011;22245;52.832;13.816;2023-07-31T10:20:05;2.20;;;2.00;;
17763;SDS011;22245;52.832;13.816;2023-07-31T10:23:28;1.85;;;1.65;;
17763;SDS011;22245;52.832;13.816;2023-07-31T10:26:52;2.45;;;1.70;;
17763;SDS011;22245;52.832;13.816;2023-07-31T10:30:16;2.45;;;1.40;;
17763;SDS011;22245;52.832;13.816;2023-07-31T10:33:39;1.95;;;1.40;;
17763;SDS011;22245;52.832;13.816;2023-07-31T10:37:20;1.52;;;1.38;;
17763;SDS011;22245;52.832;13.816;2023-07-31T10:40:43;1.40;;;1.30;;
17763;SDS011;22245;52.832;13.816;2023-07-31T10:44:05;3.88;;;1.73;;
17763;SDS011;22245;52.832;13.816;2023-07-31T10:47:30;5.30;;;3.67;;
17763;SDS011;22245;52.832;13.816;2023-07-31T10:50:52;1.88;;;1.70;;
17763;SDS011;22245;52.832;13.816;2023-07-31T10:54:16;2.20;;;1.50;;
17763;SDS011;22245;52.832;13.816;2023-07-31T10:57:39;2.47;;;1.80;;
17763;SDS011;22245;52.832;13.816;2023-07-31T11:01:01;5.18;;;2.58;;
17763;SDS011;22245;52.832;13.816;2023-07-31T11:04:26;5.82;;;1.90;;
17763;SDS011;22245;52.832;13.816;2023-07-31T11:07:49;2.67;;;1.92;;
17763;SDS011;22245;52.832;13.816;2023-07-31T11:11:11;2.85;;;2.05;;
17763;SDS011;22245;52.832;13.816;2023-07-31T11:14:34;3.10;;;2.30;;
17763;SDS011;22245;52.832;13.816;2023-07-31T11:17:55;2.95;;;2.15;;
17763;SDS011;22245;52.832;13.816;2023-07-31T11:21:20;2.30;;;2.00;;
17763;SDS011;22245;52.832;13.816;2023-07-31T11:24:43;4.82;;;1.92;;
17763;SDS011;22245;52.832;13.816;2023-07-31T11:28:05;3.70;;;2.53;;
17763;SDS011;22245;52.832;13.816;2023-07-31T11:31:28;4.00;;;3.00;;
17763;SDS011;22245;52.832;13.816;2023-07-31T11:34:51;5.55;;;2.70;;
17763;SDS011;22245;52.832;13.816;2023-07-31T11:38:22;3.38;;;2.75;;
17763;SDS011;22245;52.832;13.816;2023-07-31T11:41:45;8.18;;;4.43;;
17763;SDS011;22245;52.832;13.816;2023-07-31T11:45:07;5.88;;;3.38;;
17763;SDS011;22245;52.832;13.816;2023-07-31T11:48:30;4.50;;;3.20;;
17763;SDS011;22245;52.832;13.816;2023-07-31T11:51:55;5.95;;;3.22;;
17763;SDS011;22245;52.832;13.816;2023-07-31T11:55:18;6.93;;;4.40;;
17763;SDS011;22245;52.832;13.816;2023-07-31T11:58:40;6.18;;;4.22;;
17763;SDS011;22245;52.832;13.816;2023-07-31T12:02:04;8.23;;;3.60;;
17763;SDS011;22245;52.832;13.816;2023-07-31T12:05:26;5.65;;;3.90;;
17763;SDS011;22245;52.832;13.816;2023-07-31T12:08:48;7.88;;;4.00;;
17763;SDS011;22245;52.832;13.816;2023-07-31T12:12:11;5.13;;;3.35;;
17763;SDS011;22245;52.832;13.816;2023-07-31T12:15:41;4.45;;;3.45;;
17763;SDS011;22245;52.832;13.816;2023-07-31T12:19:05;6.43;;;3.83;;
17763;SDS011;22245;52.832;13.816;2023-07-31T12:22:28;4.78;;;3.60;;
17763;SDS011;22245;52.832;13.816;2023-07-31T12:25:54;5.82;;;3.35;;
17763;SDS011;22245;52.832;13.816;2023-07-31T12:29:23;5.30;;;3.60;;
17763;SDS011;22245;52.832;13.816;2023-07-31T12:32:45;5.22;;;3.85;;
17763;SDS011;22245;52.832;13.816;2023-07-31T12:36:07;6.00;;;3.85;;
17763;SDS011;22245;52.832;13.816;2023-07-31T12:39:31;5.82;;;3.72;;
17763;SDS011;22245;52.832;13.816;2023-07-31T12:42:54;5.25;;;3.50;;
17763;SDS011;22245;52.832;13.816;2023-07-31T12:46:17;5.20;;;3.55;;
17763;SDS011;22245;52.832;13.816;2023-07-31T12:49:39;4.88;;;3.08;;
17763;SDS011;22245;52.832;13.816;2023-07-31T12:53:01;7.35;;;3.35;;
17763;SDS011;22245;52.832;13.816;2023-07-31T12:56:23;5.47;;;3.15;;
17763;SDS011;22245;52.832;13.816;2023-07-31T12:59:44;6.22;;;3.47;;
17763;SDS011;22245;52.832;13.816;2023-07-31T13:03:07;6.35;;;3.20;;
17763;SDS011;22245;52.832;13.816;2023-07-31T13:06:29;5.07;;;3.33;;
17763;SDS011;22245;52.832;13.816;2023-07-31T13:09:50;6.40;;;3.05;;
17763;SDS011;22245;52.832;13.816;2023-07-31T13:13:12;4.15;;;2.85;;
17763;SDS011;22245;52.832;13.816;2023-07-31T13:16:33;5.45;;;2.90;;
17763;SDS011;22245;52.832;13.816;2023-07-31T13:19:56;20.02;;;3.40;;
17763;SDS011;22245;52.832;13.816;2023-07-31T13:23:19;5.45;;;3.60;;
17763;SDS011;22245;52.832;13.816;2023-07-31T13:26:40;6.95;;;3.20;;
17763;SDS011;22245;52.832;13.816;2023-07-31T13:30:01;4.05;;;2.97;;
17763;SDS011;22245;52.832;13.816;2023-07-31T13:33:23;5.85;;;2.80;;
17763;SDS011;22245;52.832;13.816;2023-07-31T13:36:58;5.88;;;3.05;;
17763;SDS011;22245;52.832;13.816;2023-07-31T13:40:20;4.40;;;3.05;;
17763;SDS011;22245;52.832;13.816;2023-07-31T13:43:43;5.88;;;2.95;;
17763;SDS011;22245;52.832;13.816;2023-07-31T13:47:05;6.20;;;3.15;;
17763;SDS011;22245;52.832;13.816;2023-07-31T13:50:26;7.53;;;3.60;;
17763;SDS011;22245;52.832;13.816;2023-07-31T13:53:50;6.07;;;3.00;;
17763;SDS011;22245;52.832;13.816;2023-07-31T13:57:12;4.95;;;3.10;;
17763;SDS011;22245;52.832;13.816;2023-07-31T14:00:33;4.32;;;2.88;;
17763;SDS011;22245;52.832;13.816;2023-07-31T14:03:55;5.60;;;3.22;;
17763;SDS011;22245;52.832;13.816;2023-07-31T14:07:17;6.40;;;3.60;;
17763;SDS011;22245;52.832;13.816;2023-07-31T14:10:40;6.25;;;3.20;;
17763;SDS011;22245;52.832;13.816;2023-07-31T14:14:02;5.00;;;3.20;;
17763;SDS011;22245;52.832;13.816;2023-07-31T14:17:25;3.95;;;2.75;;
17763;SDS011;22245;52.832;13.816;2023-07-31T14:20:47;4.88;;;2.88;;
17763;SDS011;22245;52.832;13.816;2023-07-31T14:24:08;4.82;;;2.78;;
17763;SDS011;22245;52.832;13.816;2023-07-31T14:27:32;6.35;;;2.75;;
17763;SDS011;22245;52.832;13.816;2023-07-31T14:30:53;4.00;;;2.55;;
17763;SDS011;22245;52.832;13.816;2023-07-31T14:34:15;5.25;;;2.47;;
17763;SDS011;22245;52.832;13.816;2023-07-31T14:37:37;4.53;;;2.88;;
17763;SDS011;22245;52.832;13.816;2023-07-31T14:40:59;5.40;;;2.53;;
17763;SDS011;22245;52.832;13.816;2023-07-31T14:44:22;4.70;;;2.80;;
17763;SDS011;22245;52.832;13.816;2023-07-31T14:47:44;12.30;;;3.08;;
17763;SDS011;22245;52.832;13.816;2023-07-31T14:51:06;8.68;;;2.75;;
17763;SDS011;22245;52.832;13.816;2023-07-31T14:54:27;3.25;;;2.60;;
17763;SDS011;22245;52.832;13.816;2023-07-31T14:57:48;5.03;;;2.83;;
17763;SDS011;22245;52.832;13.816;2023-07-31T15:01:11;4.45;;;2.70;;
17763;SDS011;22245;52.832;13.816;2023-07-31T15:04:33;5.57;;;2.80;;
17763;SDS011;22245;52.832;13.816;2023-07-31T15:07:54;4.00;;;2.53;;
17763;SDS011;22245;52.832;13.816;2023-07-31T15:11:16;6.25;;;3.08;;
17763;SDS011;22245;52.832;13.816;2023-07-31T15:14:38;6.00;;;2.72;;
17763;SDS011;22245;52.832;13.816;2023-07-31T15:18:01;3.88;;;2.70;;
17763;SDS011;22245;52.832;13.816;2023-07-31T15:21:23;3.55;;;2.63;;
17763;SDS011;22245;52.832;13.816;2023-07-31T15:24:44;5.80;;;2.78;;
17763;SDS011;22245;52.832;13.816;2023-07-31T15:28:06;3.58;;;2.83;;
17763;SDS011;22245;52.832;13.816;2023-07-31T15:31:29;5.95;;;2.97;;
17763;SDS011;22245;52.832;13.816;2023-07-31T15:34:52;5.82;;;3.00;;
17763;SDS011;22245;52.832;13.816;2023-07-31T15:38:14;4.32;;;2.72;;
17763;SDS011;22245;52.832;13.816;2023-07-31T15:41:35;4.40;;;2.63;;
17763;SDS011;22245;52.832;13.816;2023-07-31T15:44:57;7.00;;;3.10;;
17763;SDS011;22245;52.832;13.816;2023-07-31T15:48:19;3.88;;;2.90;;
17763;SDS011;22245;52.832;13.816;2023-07-31T15:51:42;4.97;;;2.63;;
17763;SDS011;22245;52.832;13.816;2023-07-31T15:55:04;6.00;;;3.03;;
17763;SDS011;22245;52.832;13.816;2023-07-31T15:58:26;5.00;;;3.13;;
17763;SDS011;22245;52.832;13.816;2023-07-31T16:01:48;5.18;;;3.05;;
17763;SDS011;22245;52.832;13.816;2023-07-31T16:05:10;3.95;;;2.70;;
17763;SDS011;22245;52.832;13.816;2023-07-31T16:08:32;8.73;;;3.00;;
17763;SDS011;22245;52.832;13.816;2023-07-31T16:12:00;4.18;;;3.05;;
17763;SDS011;22245;52.832;13.816;2023-07-31T16:15:23;4.93;;;3.10;;
17763;SDS011;22245;52.832;13.816;2023-07-31T16:18:44;6.53;;;3.38;;
17763;SDS011;22245;52.832;13.816;2023-07-31T16:22:06;5.20;;;2.78;;
17763;SDS011;22245;52.832;13.816;2023-07-31T16:25:28;6.85;;;2.95;;
17763;SDS011;22245;52.832;13.816;2023-07-31T16:28:50;4.22;;;3.00;;
17763;SDS011;22245;52.832;13.816;2023-07-31T16:32:11;8.32;;;3.13;;
17763;SDS011;22245;52.832;13.816;2023-07-31T16:35:32;8.23;;;3.60;;
17763;SDS011;22245;52.832;13.816;2023-07-31T16:38:54;3.58;;;2.97;;
17763;SDS011;22245;52.832;13.816;2023-07-31T16:42:16;8.65;;;3.60;;
17763;SDS011;22245;52.832;13.816;2023-07-31T16:45:39;5.03;;;3.33;;
17763;SDS011;22245;52.832;13.816;2023-07-31T16:49:00;5.90;;;3.28;;
17763;SDS011;22245;52.832;13.816;2023-07-31T16:52:24;7.78;;;3.72;;
17763;SDS011;22245;52.832;13.816;2023-07-31T16:55:45;5.45;;;3.45;;
17763;SDS011;22245;52.832;13.816;2023-07-31T16:59:08;6.30;;;3.60;;
17763;SDS011;22245;52.832;13.816;2023-07-31T17:02:30;6.97;;;3.40;;
17763;SDS011;22245;52.832;13.816;2023-07-31T17:05:52;7.90;;;3.70;;
17763;SDS011;22245;52.832;13.816;2023-07-31T17:09:14;4.90;;;3.63;;
17763;SDS011;22245;52.832;13.816;2023-07-31T17:12:37;5.05;;;3.22;;
17763;SDS011;22245;52.832;13.816;2023-07-31T17:16:00;7.05;;;3.60;;
17763;SDS011;22245;52.832;13.816;2023-07-31T17:19:22;5.88;;;3.53;;
17763;SDS011;22245;52.832;13.816;2023-07-31T17:22:43;5.30;;;3.63;;
17763;SDS011;22245;52.832;13.816;2023-07-31T17:26:08;7.55;;;4.93;;
17763;SDS011;22245;52.832;13.816;2023-07-31T17:29:32;6.85;;;4.05;;
17763;SDS011;22245;52.832;13.816;2023-07-31T17:32:56;6.30;;;4.05;;
17763;SDS011;22245;52.832;13.816;2023-07-31T17:36:18;6.57;;;4.00;;
17763;SDS011;22245;52.832;13.816;2023-07-31T17:39:40;6.78;;;4.07;;
17763;SDS011;22245;52.832;13.816;2023-07-31T17:43:02;5.95;;;3.78;;
17763;SDS011;22245;52.832;13.816;2023-07-31T17:46:24;6.57;;;4.10;;
17763;SDS011;22245;52.832;13.816;2023-07-31T17:49:47;6.28;;;3.92;;
17763;SDS011;22245;52.832;13.816;2023-07-31T17:53:08;10.95;;;5.30;;
17763;SDS011;22245;52.832;13.816;2023-07-31T17:56:29;9.35;;;4.40;;
17763;SDS011;22245;52.832;13.816;2023-07-31T17:59:51;8.15;;;4.65;;
17763;SDS011;22245;52.832;13.816;2023-07-31T18:03:13;5.75;;;4.00;;
17763;SDS011;22245;52.832;13.816;2023-07-31T18:06:36;8.07;;;4.13;;
17763;SDS011;22245;52.832;13.816;2023-07-31T18:09:58;4.65;;;3.25;;
17763;SDS011;22245;52.832;13.816;2023-07-31T18:13:21;4.75;;;2.88;;
17763;SDS011;22245;52.832;13.816;2023-07-31T18:16:43;4.90;;;3.10;;
17763;SDS011;22245;52.832;13.816;2023-07-31T18:20:06;3.35;;;2.50;;
17763;SDS011;22245;52.832;13.816;2023-07-31T18:23:31;3.50;;;2.53;;
17763;SDS011;22245;52.832;13.816;2023-07-31T18:26:52;4.90;;;2.72;;
17763;SDS011;22245;52.832;13.816;2023-07-31T18:30:14;3.67;;;2.28;;
17763;SDS011;22245;52.832;13.816;2023-07-31T18:33:37;3.63;;;2.38;;
17763;SDS011;22245;52.832;13.816;2023-07-31T18:36:59;3.22;;;2.17;;
17763;SDS011;22245;52.832;13.816;2023-07-31T18:40:22;4.70;;;2.10;;
17763;SDS011;22245;52.832;13.816;2023-07-31T18:43:44;2.75;;;1.95;;
17763;SDS011;22245;52.832;13.816;2023-07-31T18:47:06;2.88;;;2.10;;
17763;SDS011;22245;52.832;13.816;2023-07-31T18:50:27;2.53;;;1.83;;
17763;SDS011;22245;52.832;13.816;2023-07-31T18:53:48;3.45;;;2.00;;
17763;SDS011;22245;52.832;13.816;2023-07-31T18:57:12;3.63;;;2.30;;
17763;SDS011;22245;52.832;13.816;2023-07-31T19:00:33;4.22;;;2.05;;
17763;SDS011;22245;52.832;13.816;2023-07-31T19:03:55;3.15;;;2.17;;
17763;SDS011;22245;52.832;13.816;2023-07-31T19:07:18;4.97;;;2.10;;
17763;SDS011;22245;52.832;13.816;2023-07-31T19:10:40;3.50;;;2.15;;
17763;SDS011;22245;52.832;13.816;2023-07-31T19:14:03;3.38;;;2.20;;
17763;SDS011;22245;52.832;13.816;2023-07-31T19:17:25;4.32;;;2.22;;
17763;SDS011;22245;52.832;13.816;2023-07-31T19:20:47;3.95;;;2.40;;
17763;SDS011;22245;52.832;13.816;2023-07-31T19:24:09;3.38;;;2.10;;
17763;SDS011;22245;52.832;13.816;2023-07-31T19:27:30;5.97;;;2.38;;
17763;SDS011;22245;52.832;13.816;2023-07-31T19:30:53;3.67;;;2.30;;
17763;SDS011;22245;52.832;13.816;2023-07-31T19:34:15;3.22;;;2.40;;
17763;SDS011;22245;52.832;13.816;2023-07-31T19:37:37;4.18;;;2.65;;
17763;SDS011;22245;52.832;13.816;2023-07-31T19:40:58;5.25;;;2.38;;
17763;SDS011;22245;52.832;13.816;2023-07-31T19:44:21;5.20;;;2.42;;
17763;SDS011;22245;52.832;13.816;2023-07-31T19:47:44;4.68;;;2.58;;
17763;SDS011;22245;52.832;13.816;2023-07-31T19:51:06;7.43;;;2.90;;
17763;SDS011;22245;52.832;13.816;2023-07-31T19:54:28;4.13;;;2.60;;
17763;SDS011;22245;52.832;13.816;2023-07-31T19:57:49;6.28;;;2.80;;
17763;SDS011;22245;52.832;13.816;2023-07-31T20:01:10;6.47;;;2.50;;
17763;SDS011;22245;52.832;13.816;2023-07-31T20:04:33;3.65;;;2.33;;